createdAt,value
2022-10-07T00:04:32.076Z,13.91
2022-10-07T00:09:53.936Z,13.93
2022-10-07T00:15:15.830Z,13.90
2022-10-07T00:20:41.257Z,13.92
2022-10-07T00:26:06.198Z,13.94
2022-10-07T00:31:30.795Z,13.87
2022-10-07T00:36:52.646Z,13.88
2022-10-07T00:42:14.433Z,13.89
2022-10-07T00:47:37.161Z,13.91
2022-10-07T00:53:01.906Z,13.90
2022-10-07T00:58:24.744Z,13.86
2022-10-07T01:03:49.469Z,13.88
2022-10-07T01:09:12.832Z,13.88
2022-10-07T01:15:03.550Z,13.91
2022-10-07T01:20:34.742Z,13.84
2022-10-07T01:26:14.835Z,13.89
2022-10-07T01:31:44.198Z,13.90
2022-10-07T01:37:08.402Z,13.89
2022-10-07T01:42:30.581Z,13.89
2022-10-07T01:47:52.394Z,13.82
2022-10-07T01:53:52.981Z,13.82
2022-10-07T01:59:30.079Z,13.87
2022-10-07T02:05:00.964Z,13.85
2022-10-07T02:10:48.087Z,13.86
2022-10-07T02:16:33.881Z,13.84
2022-10-07T02:21:57.567Z,13.84
2022-10-07T02:27:28.033Z,13.84
2022-10-07T02:32:56.742Z,13.89
2022-10-07T02:38:19.013Z,13.85
2022-10-07T02:43:48.680Z,13.84
2022-10-07T02:49:13.977Z,13.85
2022-10-07T02:54:43.160Z,13.82
2022-10-07T03:00:10.756Z,13.76
2022-10-07T03:05:34.721Z,13.72
2022-10-07T03:10:56.390Z,13.75
2022-10-07T03:16:18.218Z,13.76
2022-10-07T03:21:40.516Z,13.77
2022-10-07T03:27:02.196Z,13.81
2022-10-07T03:32:27.064Z,13.79
2022-10-07T03:37:48.804Z,13.77
2022-10-07T03:43:10.625Z,13.75
2022-10-07T03:48:32.497Z,13.74
2022-10-07T03:53:57.343Z,13.68
2022-10-07T03:59:19.049Z,13.75
2022-10-07T04:04:40.750Z,13.75
2022-10-07T04:10:02.538Z,13.72
2022-10-07T04:15:24.258Z,13.72
2022-10-07T04:20:45.954Z,13.69
2022-10-07T04:26:09.804Z,13.65
2022-10-07T04:31:31.539Z,13.66
2022-10-07T04:36:54.260Z,13.68
2022-10-07T04:42:36.242Z,13.71
2022-10-07T04:47:58.091Z,13.77
2022-10-07T04:53:20.829Z,13.76
2022-10-07T04:58:42.508Z,13.65
2022-10-07T05:04:04.406Z,13.61
2022-10-07T05:09:26.099Z,13.59
2022-10-07T05:14:47.915Z,13.59
2022-10-07T05:20:12.309Z,13.52
2022-10-07T05:25:33.994Z,13.52
2022-10-07T05:31:10.754Z,13.53
2022-10-07T05:36:32.578Z,13.53
2022-10-07T05:41:54.289Z,13.56
2022-10-07T05:47:17.901Z,13.55
2022-10-07T05:52:39.921Z,13.59
2022-10-07T05:58:01.658Z,13.63
2022-10-07T06:03:25.889Z,13.68
2022-10-07T06:08:48.140Z,13.78
2022-10-07T06:14:09.874Z,13.75
2022-10-07T06:19:31.578Z,13.86
2022-10-07T06:24:57.450Z,13.86
2022-10-07T06:30:19.236Z,13.96
2022-10-07T06:35:41.005Z,13.98
2022-10-07T06:41:05.187Z,13.99
2022-10-07T06:46:27.004Z,14.08
2022-10-07T06:51:49.772Z,14.10
2022-10-07T06:57:40.443Z,14.15
2022-10-07T07:02:53.107Z,14.19
2022-10-07T07:08:16.681Z,14.27
2022-10-07T07:13:39.498Z,14.29
2022-10-07T07:19:07.157Z,14.32
2022-10-07T07:24:28.864Z,14.34
2022-10-07T07:29:50.679Z,14.45
2022-10-07T07:35:12.436Z,14.41
2022-10-07T07:40:37.460Z,14.45
2022-10-07T07:45:59.323Z,14.56
2022-10-07T07:51:22.134Z,14.78
2022-10-07T07:56:44.665Z,14.89
2022-10-07T08:02:07.263Z,14.92
2022-10-07T08:07:29.079Z,14.94
2022-10-07T08:12:50.777Z,15.00
2022-10-07T08:18:12.440Z,15.04
2022-10-07T08:23:35.655Z,15.13
2022-10-07T08:28:57.904Z,15.20
2022-10-07T08:34:19.585Z,15.26
2022-10-07T08:39:41.330Z,15.31
2022-10-07T08:45:03.833Z,15.41
2022-10-07T08:50:41.196Z,15.48
2022-10-07T08:56:16.489Z,15.50
2022-10-07T09:02:00.174Z,15.58
2022-10-07T09:07:36.130Z,15.67
2022-10-07T09:13:03.543Z,15.77
2022-10-07T09:18:41.202Z,15.87
2022-10-07T09:24:18.807Z,15.86
2022-10-07T09:29:40.611Z,15.85
2022-10-07T09:35:05.950Z,15.89
2022-10-07T09:40:27.622Z,15.94
2022-10-07T09:45:49.269Z,15.97
2022-10-07T09:51:13.897Z,16.06
2022-10-07T09:56:41.772Z,16.26
2022-10-07T10:02:15.443Z,16.18
2022-10-07T10:07:48.376Z,16.22
2022-10-07T10:13:33.116Z,16.35
2022-10-07T10:19:03.394Z,16.34
2022-10-07T10:24:47.698Z,16.60
2022-10-07T10:30:16.179Z,16.62
2022-10-07T10:35:45.969Z,16.53
2022-10-07T10:41:24.586Z,16.51
2022-10-07T10:47:12.875Z,16.57
2022-10-07T10:52:56.190Z,16.63
2022-10-07T10:58:42.853Z,16.76
2022-10-07T11:04:16.608Z,16.94
2022-10-07T11:09:51.952Z,16.85
2022-10-07T11:15:19.444Z,16.85
2022-10-07T11:20:47.965Z,17.15
2022-10-07T11:26:33.796Z,17.35
2022-10-07T11:32:04.828Z,17.24
2022-10-07T11:37:40.014Z,17.28
2022-10-07T11:43:12.524Z,17.40
2022-10-07T11:48:40.805Z,17.36
2022-10-07T11:54:06.411Z,17.56
2022-10-07T11:59:58.543Z,17.64
2022-10-07T12:05:35.192Z,17.91
2022-10-07T12:11:15.532Z,17.95
2022-10-07T12:16:37.201Z,17.96
2022-10-07T12:21:59.383Z,18.09
2022-10-07T12:27:28.366Z,18.08
2022-10-07T12:32:50.402Z,18.14
2022-10-07T12:38:13.074Z,18.29
2022-10-07T12:43:54.590Z,18.23
2022-10-07T12:49:41.603Z,18.20
2022-10-07T12:55:10.971Z,18.19
2022-10-07T13:00:33.371Z,18.20
2022-10-07T13:06:32.625Z,18.17
2022-10-07T13:12:03.638Z,18.11
2022-10-07T13:17:46.182Z,18.18
2022-10-07T13:23:15.930Z,18.18
2022-10-07T13:28:47.121Z,18.15
2022-10-07T13:34:17.966Z,18.12
2022-10-07T13:39:39.720Z,18.08
2022-10-07T13:45:02.762Z,18.01
2022-10-07T13:50:27.645Z,18.07
2022-10-07T13:55:49.419Z,18.03
2022-10-07T14:01:12.482Z,18.06
2022-10-07T14:06:43.239Z,18.04
2022-10-07T14:12:12.127Z,18.15
2022-10-07T14:17:47.004Z,18.25
2022-10-07T14:23:28.214Z,18.15
2022-10-07T14:28:50.059Z,18.27
2022-10-07T14:34:32.719Z,18.20
2022-10-07T14:39:54.402Z,18.23
2022-10-07T14:45:17.955Z,18.20
2022-10-07T14:50:40.112Z,18.20
2022-10-07T14:56:01.854Z,18.13
2022-10-07T15:01:25.456Z,18.10
2022-10-07T15:06:50.751Z,18.06
2022-10-07T15:12:15.823Z,18.05
2022-10-07T15:17:38.408Z,18.01
2022-10-07T15:23:02.547Z,17.98
2022-10-07T15:28:24.301Z,17.92
2022-10-07T15:33:46.127Z,17.87
2022-10-07T15:39:10.014Z,17.85
2022-10-07T15:44:31.781Z,17.71
2022-10-07T15:49:53.581Z,17.63
2022-10-07T15:55:16.257Z,17.53
2022-10-07T16:00:38.005Z,17.50
2022-10-07T16:06:02.172Z,17.49
2022-10-07T16:11:25.676Z,17.41
2022-10-07T16:16:47.368Z,17.32
2022-10-07T16:22:09.502Z,17.32
2022-10-07T16:27:51.167Z,17.37
2022-10-07T16:33:12.875Z,17.20
2022-10-07T16:38:34.557Z,17.21
2022-10-07T16:43:59.599Z,17.12
2022-10-07T16:49:21.352Z,16.98
2022-10-07T16:54:43.167Z,16.78
2022-10-07T17:00:05.578Z,16.74
2022-10-07T17:05:27.347Z,16.58
2022-10-07T17:10:49.081Z,16.52
2022-10-07T17:16:10.958Z,16.41
2022-10-07T17:21:34.868Z,16.38
2022-10-07T17:26:56.771Z,16.39
2022-10-07T17:32:18.443Z,16.38
2022-10-07T17:37:40.150Z,16.32
2022-10-07T17:43:06.802Z,16.36
2022-10-07T17:48:28.966Z,16.31
2022-10-07T17:53:51.095Z,16.27
2022-10-07T17:59:14.228Z,16.22
2022-10-07T18:04:36.363Z,16.17
2022-10-07T18:09:58.173Z,16.13
2022-10-07T18:15:19.858Z,16.08
2022-10-07T18:20:41.536Z,16.04
2022-10-07T18:26:11.777Z,15.93
2022-10-07T18:31:33.600Z,15.86
2022-10-07T18:36:56.924Z,15.85
2022-10-07T18:42:19.184Z,15.82
2022-10-07T18:47:40.901Z,15.79
2022-10-07T18:53:02.653Z,15.83
2022-10-07T18:58:24.340Z,15.83
2022-10-07T19:03:46.342Z,15.92
2022-10-07T19:09:11.282Z,15.92
2022-10-07T19:14:34.565Z,15.88
2022-10-07T19:20:00.411Z,15.84
2022-10-07T19:25:41.023Z,15.86
2022-10-07T19:31:17.996Z,15.73
2022-10-07T19:36:42.225Z,15.84
2022-10-07T19:42:04.357Z,15.77
2022-10-07T19:47:26.084Z,15.80
2022-10-07T19:52:47.754Z,15.92
2022-10-07T19:58:09.459Z,15.95
2022-10-07T20:03:31.188Z,15.94
2022-10-07T20:08:53.946Z,15.90
2022-10-07T20:14:16.187Z,15.85
2022-10-07T20:19:38.184Z,15.87
2022-10-07T20:25:01.062Z,15.85
2022-10-07T20:30:22.878Z,15.82
2022-10-07T20:35:44.612Z,15.83
2022-10-07T20:41:26.635Z,15.82
2022-10-07T20:46:51.711Z,15.68
2022-10-07T20:52:19.797Z,15.73
2022-10-07T20:57:41.727Z,15.73
2022-10-07T21:03:03.466Z,15.67
2022-10-07T21:08:26.060Z,15.66
2022-10-07T21:13:47.734Z,15.64
2022-10-07T21:19:09.557Z,15.57
2022-10-07T21:24:34.379Z,15.55
2022-10-07T21:29:56.273Z,15.49
2022-10-07T21:35:17.922Z,15.40
2022-10-07T21:40:39.669Z,15.40
2022-10-07T21:46:02.408Z,15.42
2022-10-07T21:51:29.613Z,15.42
2022-10-07T21:56:51.418Z,15.44
2022-10-07T22:02:13.746Z,15.38
2022-10-07T22:07:53.786Z,15.35
2022-10-07T22:13:15.504Z,15.31
2022-10-07T22:18:37.226Z,15.26
2022-10-07T22:24:01.214Z,15.30
2022-10-07T22:29:23.104Z,15.29
2022-10-07T22:35:03.086Z,15.32
2022-10-07T22:40:26.138Z,15.33
2022-10-07T22:45:58.523Z,15.25
2022-10-07T22:51:20.821Z,15.33
2022-10-07T22:56:42.635Z,15.34
2022-10-07T23:02:04.317Z,15.35
2022-10-07T23:07:25.969Z,15.41
2022-10-07T23:12:48.117Z,15.52
2022-10-07T23:18:10.143Z,15.50
2022-10-07T23:23:37.151Z,15.53
2022-10-07T23:29:00.469Z,15.52
2022-10-07T23:34:22.424Z,15.54
2022-10-07T23:39:44.170Z,15.56
2022-10-07T23:45:06.343Z,15.63
2022-10-07T23:50:28.062Z,15.63
2022-10-07T23:55:52.036Z,15.56
